Time;durP1;ratioP1;P1;durP2;ratioP2;P2;SDS_P1;SDS_P2;PMS_P1;PMS_P2;Temp;Humidity;BMP_temperature;BMP_pressure;BME280_temperature;BME280_humidity;BME280_pressure;Samples;Min_cycle;Max_cycle;Signal;HPM_P1;HPM_P2
2021/09/21 00:01:16;;;;;;;21.92;4.93;;;14.90;67.50;;;;;;5038925;28;20013;-88
2021/09/21 00:03:43;;;;;;;18.80;6.63;;;14.90;67.70;;;;;;5049444;28;20531;-83
2021/09/21 00:06:09;;;;;;;21.42;6.80;;;14.80;67.70;;;;;;5052906;28;20044;-84
2021/09/21 00:08:36;;;;;;;19.02;6.50;;;14.80;67.80;;;;;;5049970;28;20021;-82
2021/09/21 00:11:04;;;;;;;17.77;7.15;;;14.70;67.90;;;;;;5051640;28;20373;-80
2021/09/21 00:13:31;;;;;;;12.88;6.30;;;14.70;68.10;;;;;;5049973;28;20033;-79
2021/09/21 00:15:58;;;;;;;17.85;5.78;;;14.70;68.30;;;;;;5050783;28;20013;-81
2021/09/21 00:18:25;;;;;;;11.63;5.75;;;14.70;68.50;;;;;;5045345;28;20010;-84
2021/09/21 00:20:52;;;;;;;18.92;7.13;;;14.70;68.60;;;;;;5053144;28;20055;-78
2021/09/21 00:23:19;;;;;;;15.63;6.90;;;14.70;68.60;;;;;;5048581;28;20099;-83
2021/09/21 00:25:45;;;;;;;18.00;5.13;;;14.70;68.50;;;;;;5049404;28;20045;-71
2021/09/21 00:28:12;;;;;;;14.20;4.05;;;14.70;68.50;;;;;;5052781;28;20021;-79
2021/09/21 00:30:46;;;;;;;12.90;4.75;;;14.70;68.70;;;;;;5047001;28;20030;-78
2021/09/21 00:33:18;;;;;;;14.57;3.25;;;14.70;68.70;;;;;;5056148;28;20108;-80
2021/09/21 00:35:46;;;;;;;12.93;3.90;;;14.70;68.60;;;;;;5053993;28;20020;-82
2021/09/21 00:38:15;;;;;;;8.73;3.63;;;14.70;68.50;;;;;;5053895;28;20020;-83
2021/09/21 00:40:43;;;;;;;17.63;4.22;;;14.70;68.50;;;;;;5053001;28;20071;-79
2021/09/21 00:43:10;;;;;;;8.45;3.40;;;14.70;68.50;;;;;;5049698;28;20017;-85
2021/09/21 00:45:37;;;;;;;13.15;4.38;;;14.70;68.50;;;;;;5049029;28;20024;-85
2021/09/21 00:48:05;;;;;;;12.95;3.72;;;14.70;68.60;;;;;;5056639;28;20017;-74
2021/09/21 00:50:32;;;;;;;11.18;3.92;;;14.80;68.80;;;;;;5051845;28;20052;-82
2021/09/21 00:53:00;;;;;;;9.57;3.33;;;14.80;68.90;;;;;;5050165;28;20379;-85
2021/09/21 00:55:28;;;;;;;13.57;3.35;;;14.80;68.80;;;;;;5051608;28;20468;-78
2021/09/21 00:57:54;;;;;;;16.33;5.28;;;14.80;69.50;;;;;;5044386;28;20472;-85
2021/09/21 01:00:23;;;;;;;10.00;3.30;;;14.80;68.80;;;;;;5051020;28;20041;-84
2021/09/21 01:02:50;;;;;;;9.45;2.22;;;14.80;68.90;;;;;;5042852;28;20021;-83
2021/09/21 01:05:16;;;;;;;9.48;3.22;;;14.80;69.00;;;;;;5050023;28;20131;-80
2021/09/21 01:07:44;;;;;;;12.85;4.25;;;14.80;68.90;;;;;;5055307;28;20022;-86
2021/09/21 01:10:24;;;;;;;10.43;4.28;;;14.80;69.00;;;;;;5048301;28;20415;-79
2021/09/21 01:12:51;;;;;;;11.90;3.90;;;14.80;68.90;;;;;;5056578;28;20029;-84
2021/09/21 01:15:18;;;;;;;13.38;4.03;;;14.80;69.00;;;;;;5049351;28;20487;-70
2021/09/21 01:17:45;;;;;;;9.75;3.38;;;14.80;69.00;;;;;;5048207;28;20371;-78
2021/09/21 01:20:14;;;;;;;9.35;4.25;;;14.80;69.10;;;;;;5051789;28;20425;-85
2021/09/21 01:22:41;;;;;;;10.10;2.70;;;14.80;69.20;;;;;;5049255;28;20017;-73
2021/09/21 01:25:09;;;;;;;10.15;2.70;;;14.80;69.30;;;;;;5049417;28;20056;-79
2021/09/21 01:27:35;;;;;;;11.32;2.88;;;14.80;69.30;;;;;;5048066;28;20018;-76
2021/09/21 01:30:04;;;;;;;9.10;2.65;;;14.80;69.40;;;;;;5050848;28;20096;-74
2021/09/21 01:32:31;;;;;;;17.42;2.67;;;14.80;69.40;;;;;;5052786;28;20056;-79
2021/09/21 01:35:00;;;;;;;12.27;2.22;;;14.80;69.30;;;;;;5050594;28;20028;-84
2021/09/21 01:37:28;;;;;;;7.88;2.50;;;14.80;69.40;;;;;;5053530;28;20138;-81
2021/09/21 01:39:55;;;;;;;12.50;3.08;;;14.70;69.40;;;;;;5053562;28;20021;-83
2021/09/21 01:42:21;;;;;;;10.07;2.85;;;14.70;69.60;;;;;;5052729;28;20021;-84
2021/09/21 01:44:48;;;;;;;10.38;2.17;;;14.70;69.50;;;;;;5049130;28;20104;-85
2021/09/21 01:47:16;;;;;;;16.05;4.80;;;14.70;69.40;;;;;;5055460;28;20017;-82
2021/09/21 01:52:41;;;;;;;13.95;3.08;;;14.70;69.30;;;;;;5032525;28;20053;-86
2021/09/21 02:00:38;;;;;;;13.93;3.45;;;14.70;69.30;;;;;;5046715;28;20079;-75
2021/09/21 02:03:04;;;;;;;8.18;2.95;;;14.70;69.40;;;;;;5055250;28;20036;-75
2021/09/21 02:05:30;;;;;;;8.07;2.50;;;14.70;69.60;;;;;;5053821;28;20027;-81
2021/09/21 02:07:57;;;;;;;10.38;2.88;;;14.70;69.70;;;;;;5058679;28;20021;-77
2021/09/21 02:10:24;;;;;;;9.23;3.55;;;14.70;70.00;;;;;;5053108;28;20104;-75
2021/09/21 02:12:50;;;;;;;14.93;3.88;;;14.60;70.00;;;;;;5049360;28;20032;-80
2021/09/21 02:15:17;;;;;;;12.80;2.80;;;14.60;70.10;;;;;;5044869;28;20024;-78
2021/09/21 02:17:43;;;;;;;9.10;2.10;;;14.60;70.20;;;;;;5056227;28;20059;-73
2021/09/21 02:20:10;;;;;;;8.45;2.15;;;14.60;70.40;;;;;;5050047;28;20017;-73
2021/09/21 02:22:37;;;;;;;11.75;2.72;;;14.60;70.40;;;;;;5052096;28;20104;-77
2021/09/21 02:25:04;;;;;;;8.55;3.85;;;14.60;70.50;;;;;;5049804;28;20043;-81
2021/09/21 02:27:30;;;;;;;15.98;3.00;;;14.70;70.40;;;;;;5050145;28;20025;-84
2021/09/21 02:29:56;;;;;;;13.60;3.25;;;14.70;70.50;;;;;;5046395;28;20392;-77
2021/09/21 02:32:23;;;;;;;10.23;3.60;;;14.70;70.40;;;;;;5052022;28;22323;-77
2021/09/21 02:34:50;;;;;;;12.55;3.83;;;14.60;70.50;;;;;;5056954;28;20017;-79
2021/09/21 02:37:17;;;;;;;8.52;2.65;;;14.60;70.40;;;;;;5050713;28;20461;-73
2021/09/21 02:39:44;;;;;;;11.25;2.90;;;14.50;70.30;;;;;;5053941;28;20491;-82
2021/09/21 02:42:11;;;;;;;10.20;3.25;;;14.50;70.20;;;;;;5049902;28;20025;-84
2021/09/21 02:44:37;;;;;;;9.48;3.35;;;14.50;70.40;;;;;;5056715;28;20017;-76
2021/09/21 02:47:04;;;;;;;11.63;3.15;;;14.40;70.40;;;;;;5047368;28;20392;-84
2021/09/21 02:49:32;;;;;;;6.63;2.80;;;14.40;70.50;;;;;;5051201;28;20017;-84
2021/09/21 02:51:59;;;;;;;10.55;3.78;;;14.30;70.50;;;;;;5050632;28;20038;-82
2021/09/21 02:54:25;;;;;;;17.02;3.95;;;14.30;70.60;;;;;;5042114;28;20040;-81
2021/09/21 02:56:52;;;;;;;9.52;2.78;;;14.30;70.60;;;;;;5049467;28;20488;-76
2021/09/21 02:59:18;;;;;;;11.48;4.50;;;14.20;70.60;;;;;;5054057;28;20037;-79
2021/09/21 03:01:45;;;;;;;10.50;3.30;;;14.20;70.50;;;;;;5047247;28;20112;-78
2021/09/21 03:04:23;;;;;;;14.35;4.72;;;14.20;70.60;;;;;;5049206;28;20029;-83
2021/09/21 03:06:53;;;;;;;22.63;6.20;;;14.20;70.50;;;;;;5048334;28;20441;-84
2021/09/21 03:10:08;;;;;;;10.77;3.40;;;14.20;70.30;;;;;;5052218;28;20048;-82
2021/09/21 03:12:25;;;;;;;10.27;3.30;;;14.10;70.10;;;;;;5033402;28;20033;-85
2021/09/21 03:17:37;;;;;;;14.47;4.37;;;14.10;70.20;;;;;;5051161;28;20055;-79
2021/09/21 03:20:04;;;;;;;11.10;2.85;;;14.00;70.00;;;;;;5046456;28;20254;-77
2021/09/21 03:22:30;;;;;;;13.77;3.28;;;14.00;69.90;;;;;;5051336;28;20036;-81
2021/09/21 03:24:57;;;;;;;11.75;2.53;;;14.00;69.70;;;;;;5050338;28;20017;-69
2021/09/21 03:27:24;;;;;;;8.07;2.60;;;14.00;68.70;;;;;;5046157;28;20016;-73
2021/09/21 03:29:50;;;;;;;9.00;3.15;;;14.00;67.70;;;;;;5044984;28;20013;-69
2021/09/21 03:32:17;;;;;;;8.13;2.08;;;14.10;66.80;;;;;;5048342;28;20391;-84
2021/09/21 03:34:43;;;;;;;6.78;1.58;;;14.00;65.30;;;;;;5049388;28;20390;-80
2021/09/21 03:37:11;;;;;;;7.57;1.63;;;14.00;64.60;;;;;;5050365;28;20468;-84
2021/09/21 03:39:40;;;;;;;10.65;2.67;;;14.00;64.10;;;;;;5052280;28;20074;-79
2021/09/21 03:42:06;;;;;;;8.73;1.88;;;14.00;63.70;;;;;;5052524;28;20099;-83
2021/09/21 03:44:33;;;;;;;5.38;1.83;;;14.00;63.50;;;;;;5055517;28;20302;-82
2021/09/21 03:46:59;;;;;;;3.70;1.38;;;14.10;63.40;;;;;;5052110;28;20044;-78
2021/09/21 03:49:26;;;;;;;7.30;1.65;;;14.10;63.10;;;;;;5051519;28;20468;-79
2021/09/21 03:51:53;;;;;;;8.93;1.92;;;14.10;62.70;;;;;;5049796;28;20017;-77
2021/09/21 03:54:19;;;;;;;40.88;28.45;;;14.10;62.80;;;;;;5048832;28;20094;-71
2021/09/21 03:56:46;;;;;;;22.55;13.57;;;14.10;63.10;;;;;;5050390;28;20021;-74
2021/09/21 03:59:12;;;;;;;7.07;2.63;;;14.10;62.90;;;;;;5047687;28;20416;-72
2021/09/21 04:01:39;;;;;;;7.07;1.65;;;14.20;62.60;;;;;;5047133;28;20005;-72
2021/09/21 04:04:06;;;;;;;6.47;2.03;;;14.10;63.10;;;;;;5047487;28;20024;-70
2021/09/21 04:06:34;;;;;;;5.07;1.77;;;14.10;62.40;;;;;;5046836;28;20494;-74
2021/09/21 04:09:01;;;;;;;16.60;11.10;;;14.20;62.80;;;;;;5041720;28;20017;-73
2021/09/21 04:11:27;;;;;;;32.97;25.00;;;14.20;62.60;;;;;;5042964;28;20048;-74
2021/09/21 04:13:54;;;;;;;11.23;5.22;;;14.20;62.60;;;;;;5044563;28;20094;-72
2021/09/21 04:16:20;;;;;;;8.75;2.47;;;14.20;62.50;;;;;;5046327;28;20025;-75
2021/09/21 04:18:47;;;;;;;10.45;3.03;;;14.20;62.20;;;;;;5040214;28;20018;-74
2021/09/21 04:21:13;;;;;;;8.68;3.08;;;14.20;62.10;;;;;;5040409;28;20024;-75
2021/09/21 04:23:40;;;;;;;9.90;6.53;;;14.20;62.10;;;;;;5041837;28;20025;-76
2021/09/21 04:26:07;;;;;;;21.02;4.75;;;14.20;61.90;;;;;;5044441;28;20021;-71
2021/09/21 04:28:35;;;;;;;6.40;2.53;;;14.20;62.00;;;;;;5045070;28;20017;-73
2021/09/21 04:31:09;;;;;;;9.95;2.60;;;14.20;61.90;;;;;;5038795;28;20021;-79
2021/09/21 04:33:40;;;;;;;7.57;2.80;;;14.20;61.80;;;;;;5044520;28;20120;-78
2021/09/21 04:36:10;;;;;;;8.80;3.67;;;14.20;61.80;;;;;;5043386;28;20048;-77
2021/09/21 04:38:38;;;;;;;9.75;3.35;;;14.20;61.90;;;;;;5041301;28;20033;-72
2021/09/21 04:41:06;;;;;;;3.72;1.70;;;14.20;61.80;;;;;;5046683;28;20135;-76
2021/09/21 04:43:35;;;;;;;6.93;2.10;;;14.20;61.90;;;;;;5047261;28;20035;-70
2021/09/21 04:46:03;;;;;;;4.47;1.50;;;14.20;61.80;;;;;;5041749;28;20040;-77
2021/09/21 04:48:29;;;;;;;3.33;2.05;;;14.20;61.30;;;;;;5047350;28;20537;-70
2021/09/21 04:50:56;;;;;;;10.30;2.67;;;14.20;61.20;;;;;;5040267;28;20020;-75
2021/09/21 04:53:22;;;;;;;12.43;1.45;;;14.20;61.20;;;;;;5039218;28;20391;-75
2021/09/21 04:55:49;;;;;;;10.98;2.00;;;14.20;60.90;;;;;;5049862;28;20553;-80
2021/09/21 04:58:15;;;;;;;11.48;2.10;;;14.30;60.40;;;;;;5035687;28;20137;-79
2021/09/21 05:00:42;;;;;;;4.68;2.35;;;14.20;60.20;;;;;;5046896;28;20075;-81
2021/09/21 05:03:08;;;;;;;7.28;1.67;;;14.20;59.90;;;;;;5045789;28;20734;-77
2021/09/21 05:05:35;;;;;;;12.77;2.17;;;14.20;59.90;;;;;;5047101;28;20017;-81
2021/09/21 05:08:01;;;;;;;4.13;2.10;;;14.20;59.80;;;;;;5040698;28;20028;-81
2021/09/21 05:10:29;;;;;;;6.22;2.17;;;14.20;60.10;;;;;;5038338;28;20013;-81
2021/09/21 05:12:56;;;;;;;8.50;2.45;;;14.10;59.30;;;;;;5042787;28;20025;-82
2021/09/21 05:15:22;;;;;;;5.07;1.98;;;14.10;59.40;;;;;;5037276;28;20373;-74
2021/09/21 05:17:49;;;;;;;10.55;3.40;;;14.10;59.50;;;;;;5040897;28;20043;-80
2021/09/21 05:20:16;;;;;;;8.27;3.20;;;14.10;59.50;;;;;;5036556;28;20025;-79
2021/09/21 05:22:43;;;;;;;8.80;2.92;;;14.10;59.70;;;;;;5038799;28;20108;-82
2021/09/21 05:25:11;;;;;;;8.23;2.25;;;14.10;59.60;;;;;;5037770;28;20053;-77
2021/09/21 05:27:38;;;;;;;7.22;2.33;;;14.10;59.70;;;;;;5044390;28;20033;-82
2021/09/21 05:30:05;;;;;;;7.82;1.67;;;14.10;59.60;;;;;;5046075;28;20048;-82
2021/09/21 05:32:32;;;;;;;8.30;2.05;;;14.10;59.70;;;;;;5036578;28;20445;-79
2021/09/21 05:34:58;;;;;;;6.82;3.08;;;14.10;59.80;;;;;;5039527;28;20052;-82
2021/09/21 05:37:27;;;;;;;6.65;2.38;;;14.10;60.00;;;;;;5036203;28;20387;-81
2021/09/21 05:39:54;;;;;;;6.63;1.98;;;14.10;60.20;;;;;;5043068;28;20040;-77
2021/09/21 05:42:20;;;;;;;5.68;2.10;;;14.10;60.50;;;;;;5044046;28;20664;-80
2021/09/21 05:44:47;;;;;;;10.38;2.28;;;14.10;60.90;;;;;;5047062;28;20026;-81
2021/09/21 05:47:14;;;;;;;10.70;2.50;;;14.20;61.30;;;;;;5050703;28;20017;-82
2021/09/21 05:49:40;;;;;;;9.55;2.72;;;14.20;62.00;;;;;;5044869;28;20017;-81
2021/09/21 05:52:07;;;;;;;5.55;2.22;;;14.30;62.60;;;;;;5048498;28;20387;-81
2021/09/21 05:54:33;;;;;;;11.57;3.15;;;14.30;63.30;;;;;;5048811;28;20033;-79
2021/09/21 05:57:00;;;;;;;5.97;1.60;;;14.40;63.80;;;;;;5045789;28;20047;-79
2021/09/21 05:59:26;;;;;;;17.83;2.28;;;14.40;63.90;;;;;;5045064;28;20041;-72
2021/09/21 06:01:53;;;;;;;10.40;3.15;;;14.40;64.00;;;;;;5047185;28;20021;-78
2021/09/21 06:04:19;;;;;;;5.43;1.70;;;14.50;64.10;;;;;;5044784;28;20044;-80
2021/09/21 06:06:46;;;;;;;4.85;1.73;;;14.50;63.80;;;;;;5038914;28;20048;-75
2021/09/21 06:09:12;;;;;;;6.93;2.65;;;14.60;63.60;;;;;;5045183;28;20021;-78
2021/09/21 06:11:39;;;;;;;3.95;1.88;;;14.60;63.40;;;;;;5040989;28;20083;-78
2021/09/21 06:14:06;;;;;;;6.50;2.25;;;14.70;63.10;;;;;;5044057;28;20033;-76
2021/09/21 06:16:33;;;;;;;4.55;1.95;;;14.70;62.40;;;;;;5051216;28;20096;-81
2021/09/21 06:18:59;;;;;;;4.28;1.70;;;14.70;61.30;;;;;;5047650;28;20380;-79
2021/09/21 06:21:26;;;;;;;4.70;1.70;;;14.80;59.50;;;;;;5051472;28;20104;-81
2021/09/21 06:23:54;;;;;;;7.22;1.65;;;14.80;57.90;;;;;;5053140;28;20440;-80
2021/09/21 06:26:21;;;;;;;6.53;1.88;;;14.80;57.00;;;;;;5049593;28;20027;-76
2021/09/21 06:28:48;;;;;;;5.15;2.00;;;14.90;57.30;;;;;;5045639;28;20025;-79
2021/09/21 06:31:14;;;;;;;4.18;2.20;;;14.90;56.60;;;;;;5051723;28;20088;-80
2021/09/21 06:33:41;;;;;;;10.40;3.28;;;14.90;56.70;;;;;;5047093;28;20125;-79
2021/09/21 06:36:08;;;;;;;16.65;3.00;;;15.00;57.20;;;;;;5051763;28;20021;-79
2021/09/21 06:38:37;;;;;;;7.30;3.42;;;15.00;58.10;;;;;;5048433;28;20781;-77
2021/09/21 06:41:05;;;;;;;12.15;3.95;;;15.00;58.80;;;;;;5052619;28;20028;-75
2021/09/21 06:43:32;;;;;;;16.38;3.90;;;15.00;59.30;;;;;;5046758;28;20013;-79
2021/09/21 06:45:59;;;;;;;14.05;4.78;;;15.10;59.60;;;;;;5045822;28;20125;-78
2021/09/21 06:48:26;;;;;;;16.88;5.00;;;15.10;59.90;;;;;;5045900;28;20021;-79
2021/09/21 06:50:53;;;;;;;11.15;5.07;;;15.20;60.00;;;;;;5047761;28;20018;-79
2021/09/21 06:53:20;;;;;;;16.58;5.70;;;15.20;59.70;;;;;;5047472;28;20040;-78
2021/09/21 06:55:47;;;;;;;12.23;4.72;;;15.20;59.30;;;;;;5048310;28;20025;-78
2021/09/21 06:58:14;;;;;;;18.30;4.80;;;15.20;59.00;;;;;;5045644;28;20487;-80
2021/09/21 07:00:42;;;;;;;18.20;6.57;;;15.20;59.20;;;;;;5050049;28;20143;-76
2021/09/21 07:03:09;;;;;;;16.27;4.82;;;15.20;59.30;;;;;;5046261;28;20067;-79
2021/09/21 07:05:36;;;;;;;15.55;5.43;;;15.20;59.30;;;;;;5045855;28;20017;-78
2021/09/21 07:08:03;;;;;;;18.15;7.45;;;15.20;60.10;;;;;;5047918;28;20037;-74
2021/09/21 07:10:30;;;;;;;13.35;4.10;;;15.30;59.80;;;;;;5048513;28;20033;-78
2021/09/21 07:12:57;;;;;;;12.55;4.00;;;15.30;59.80;;;;;;5044102;28;20079;-80
2021/09/21 07:15:23;;;;;;;10.23;2.92;;;15.40;59.50;;;;;;5052791;28;20021;-75
2021/09/21 07:17:52;;;;;;;7.20;3.35;;;15.40;59.00;;;;;;5050409;28;20092;-79
2021/09/21 07:20:19;;;;;;;8.95;3.65;;;15.50;58.20;;;;;;5046995;28;20021;-78
2021/09/21 07:22:46;;;;;;;6.85;2.30;;;15.60;56.60;;;;;;5050423;28;20044;-77
2021/09/21 07:25:13;;;;;;;8.90;2.13;;;15.70;56.50;;;;;;5046034;28;20025;-77
2021/09/21 07:27:40;;;;;;;7.93;2.25;;;15.80;56.00;;;;;;5045961;28;20104;-77
2021/09/21 07:30:07;;;;;;;6.78;2.03;;;15.90;55.30;;;;;;5044315;28;20021;-77
2021/09/21 07:32:34;;;;;;;6.00;1.92;;;16.00;55.30;;;;;;5050176;28;20503;-75
2021/09/21 07:35:02;;;;;;;4.35;1.75;;;16.10;55.00;;;;;;5050555;28;20016;-76
2021/09/21 07:37:28;;;;;;;6.57;1.42;;;16.20;54.80;;;;;;5045358;28;20075;-75
2021/09/21 07:39:55;;;;;;;9.25;1.83;;;16.20;54.60;;;;;;5047181;28;20108;-77
2021/09/21 07:42:22;;;;;;;8.93;2.05;;;16.30;54.60;;;;;;5050461;28;20047;-75
2021/09/21 07:44:49;;;;;;;6.72;1.58;;;16.40;54.40;;;;;;5040622;28;20381;-76
2021/09/21 07:47:16;;;;;;;7.85;1.75;;;16.40;54.00;;;;;;5048749;28;20017;-76
2021/09/21 07:49:43;;;;;;;6.75;1.85;;;16.40;54.00;;;;;;5049619;28;20735;-77
2021/09/21 07:52:10;;;;;;;4.80;2.17;;;16.50;53.50;;;;;;5049174;28;20013;-77
2021/09/21 07:54:36;;;;;;;6.82;1.80;;;16.50;52.90;;;;;;5041637;28;20056;-76
2021/09/21 07:57:03;;;;;;;7.90;1.73;;;16.60;53.00;;;;;;5045712;28;20021;-76
2021/09/21 07:59:29;;;;;;;5.53;2.03;;;16.70;53.20;;;;;;5047181;28;20048;-77
2021/09/21 08:01:56;;;;;;;4.25;1.35;;;16.80;53.00;;;;;;5047091;28;20017;-76
2021/09/21 08:04:22;;;;;;;5.00;1.25;;;16.90;52.20;;;;;;5046994;28;20025;-77
2021/09/21 08:06:49;;;;;;;7.70;2.33;;;17.00;50.40;;;;;;5044150;28;20036;-75
2021/09/21 08:09:16;;;;;;;6.05;1.70;;;17.10;50.40;;;;;;5046268;28;20021;-77
2021/09/21 08:11:43;;;;;;;5.68;1.70;;;17.30;49.50;;;;;;5050544;28;20025;-76
2021/09/21 08:14:10;;;;;;;4.28;1.13;;;17.40;49.30;;;;;;5047433;28;20055;-75
2021/09/21 08:16:38;;;;;;;6.28;2.00;;;17.50;49.10;;;;;;5045487;28;20051;-77
2021/09/21 08:19:05;;;;;;;7.40;1.40;;;17.60;49.40;;;;;;5044043;28;20040;-72
2021/09/21 08:21:32;;;;;;;3.85;1.25;;;17.80;48.70;;;;;;5045764;28;20020;-77
2021/09/21 08:23:58;;;;;;;6.20;1.30;;;17.90;48.50;;;;;;5048129;28;20025;-75
2021/09/21 08:26:25;;;;;;;8.93;1.60;;;17.90;46.70;;;;;;5046543;28;20105;-77
2021/09/21 08:28:51;;;;;;;6.75;1.50;;;18.00;47.00;;;;;;5044547;28;20016;-76
2021/09/21 08:31:18;;;;;;;2.95;1.52;;;18.00;47.10;;;;;;5048501;28;20468;-77
2021/09/21 08:33:44;;;;;;;3.75;1.52;;;18.00;47.40;;;;;;5048680;28;20575;-76
2021/09/21 08:36:11;;;;;;;4.32;1.48;;;18.00;47.30;;;;;;5046364;28;20553;-76
2021/09/21 08:38:37;;;;;;;2.70;1.23;;;18.00;47.00;;;;;;5043695;28;20021;-76
2021/09/21 08:41:04;;;;;;;4.35;1.20;;;18.00;46.90;;;;;;5046868;28;20017;-77
2021/09/21 08:43:31;;;;;;;7.65;2.22;;;18.00;46.50;;;;;;5046248;28;20017;-77
2021/09/21 08:45:57;;;;;;;3.20;1.60;;;18.00;46.30;;;;;;5047744;28;20510;-76
2021/09/21 08:48:25;;;;;;;2.17;1.25;;;18.10;46.40;;;;;;5046457;28;20024;-76
2021/09/21 08:50:51;;;;;;;5.47;2.08;;;18.10;45.70;;;;;;5047193;28;20010;-76
2021/09/21 08:53:18;;;;;;;4.63;1.25;;;18.30;44.30;;;;;;5045079;28;20044;-77
2021/09/21 08:55:44;;;;;;;3.20;1.75;;;18.30;44.10;;;;;;5045590;28;20071;-74
2021/09/21 08:58:11;;;;;;;3.30;1.42;;;18.40;44.20;;;;;;5046598;28;20029;-75
2021/09/21 09:00:37;;;;;;;6.32;2.10;;;18.60;44.30;;;;;;5047131;28;20041;-77
2021/09/21 09:03:07;;;;;;;7.63;1.63;;;18.70;44.60;;;;;;5046537;28;20025;-77
2021/09/21 09:05:53;;;;;;;3.25;1.60;;;18.90;44.90;;;;;;5046738;28;20025;-76
2021/09/21 09:08:31;;;;;;;5.60;1.58;;;19.00;44.70;;;;;;5038971;28;20529;-77
2021/09/21 09:11:15;;;;;;;6.15;1.85;;;19.10;44.30;;;;;;5047320;28;20502;-76
2021/09/21 09:13:43;;;;;;;4.70;1.67;;;19.20;43.90;;;;;;5041549;28;20021;-77
2021/09/21 09:16:15;;;;;;;5.88;2.72;;;19.30;44.50;;;;;;5048168;28;20417;-77
2021/09/21 09:18:43;;;;;;;6.72;2.22;;;19.30;45.10;;;;;;5045228;28;20025;-75
2021/09/21 09:21:10;;;;;;;6.88;2.22;;;19.40;45.20;;;;;;5042973;28;20048;-76
2021/09/21 09:24:04;;;;;;;7.05;2.28;;;19.50;45.50;;;;;;5048667;28;20380;-76
2021/09/21 09:26:35;;;;;;;5.97;2.75;;;19.60;45.70;;;;;;5041903;28;20450;-76
2021/09/21 09:29:02;;;;;;;6.60;2.15;;;19.70;45.10;;;;;;5051950;28;20048;-76
2021/09/21 09:31:34;;;;;;;7.00;1.92;;;19.80;44.20;;;;;;5048103;28;20027;-76
2021/09/21 09:34:29;;;;;;;8.88;2.00;;;19.80;43.80;;;;;;5043007;28;20141;-77
2021/09/21 09:37:00;;;;;;;7.32;2.90;;;19.90;44.80;;;;;;5042487;28;20102;-75
2021/09/21 09:39:29;;;;;;;6.18;2.00;;;19.80;43.90;;;;;;5046471;28;20021;-76
2021/09/21 09:41:59;;;;;;;8.93;2.10;;;19.80;43.10;;;;;;5040803;28;20028;-76
2021/09/21 09:44:28;;;;;;;12.20;1.85;;;19.70;43.60;;;;;;5043253;28;20032;-76
2021/09/21 09:47:04;;;;;;;9.68;2.13;;;19.70;43.50;;;;;;5046993;28;20411;-76
2021/09/21 09:49:40;;;;;;;8.32;2.20;;;19.70;43.00;;;;;;5048906;28;20032;-76
2021/09/21 09:52:16;;;;;;;8.65;2.10;;;19.70;43.10;;;;;;5052113;28;20021;-77
2021/09/21 09:54:44;;;;;;;6.57;2.00;;;19.80;43.60;;;;;;5047774;28;20366;-76
2021/09/21 09:57:12;;;;;;;7.60;2.58;;;19.80;44.00;;;;;;5047753;28;20009;-77
2021/09/21 09:59:41;;;;;;;5.60;1.80;;;19.90;43.90;;;;;;5047199;28;20048;-77
2021/09/21 10:02:08;;;;;;;5.88;1.85;;;20.10;44.10;;;;;;5045795;28;20017;-75
2021/09/21 10:04:36;;;;;;;4.65;1.50;;;20.20;43.50;;;;;;5044021;28;20014;-74
2021/09/21 10:07:03;;;;;;;6.65;2.13;;;20.30;43.60;;;;;;5049095;28;20468;-75
2021/09/21 10:09:29;;;;;;;4.15;1.65;;;20.40;43.00;;;;;;5044344;28;20020;-75
2021/09/21 10:11:58;;;;;;;6.93;1.73;;;20.50;42.50;;;;;;5043644;28;20017;-76
2021/09/21 10:14:26;;;;;;;4.85;1.83;;;20.50;42.90;;;;;;5043296;28;20021;-76
2021/09/21 10:16:55;;;;;;;10.68;2.97;;;20.50;42.50;;;;;;5047136;28;20030;-74
2021/09/21 10:19:23;;;;;;;11.05;2.58;;;20.60;42.90;;;;;;5044759;28;20055;-76
2021/09/21 10:21:53;;;;;;;7.28;2.80;;;20.60;43.30;;;;;;5042839;28;20024;-74
2021/09/21 10:24:36;;;;;;;6.10;2.30;;;20.70;43.80;;;;;;5051186;28;20022;-76
2021/09/21 10:27:07;;;;;;;6.28;2.10;;;20.90;43.40;;;;;;5043056;28;20022;-76
2021/09/21 10:29:33;;;;;;;16.00;2.90;;;20.90;43.20;;;;;;5047541;28;20024;-74
2021/09/21 10:32:00;;;;;;;5.53;2.65;;;21.00;43.10;;;;;;5049888;28;20026;-74
2021/09/21 10:34:37;;;;;;;4.93;1.52;;;21.00;42.10;;;;;;5054635;28;20068;-75
2021/09/21 10:37:06;;;;;;;12.15;2.08;;;21.10;41.60;;;;;;5049697;28;20480;-75
2021/09/21 10:39:33;;;;;;;3.30;1.55;;;21.20;42.00;;;;;;5049184;28;20025;-75
2021/09/21 10:42:01;;;;;;;7.80;2.47;;;21.30;41.00;;;;;;5050031;28;20021;-76
2021/09/21 10:44:28;;;;;;;6.55;2.42;;;21.40;40.90;;;;;;5035355;28;20022;-76
2021/09/21 10:47:06;;;;;;;5.18;2.33;;;21.50;41.20;;;;;;5048129;28;20021;-76
2021/09/21 10:49:38;;;;;;;8.23;2.33;;;21.60;40.90;;;;;;5047354;28;20021;-76
2021/09/21 10:52:11;;;;;;;3.70;1.98;;;21.70;40.30;;;;;;5042879;28;20024;-75
2021/09/21 10:54:41;;;;;;;6.55;2.40;;;21.80;40.70;;;;;;5047878;28;20029;-75
2021/09/21 10:57:16;;;;;;;5.45;2.15;;;21.90;40.40;;;;;;5054466;28;20044;-81
2021/09/21 10:59:57;;;;;;;9.50;2.47;;;22.00;40.10;;;;;;5041953;28;20103;-77
2021/09/21 11:02:29;;;;;;;9.05;2.40;;;22.10;39.60;;;;;;5039397;28;20028;-79
2021/09/21 11:04:57;;;;;;;11.13;2.10;;;22.20;39.70;;;;;;5054537;28;20043;-79
2021/09/21 11:07:23;;;;;;;8.52;2.00;;;22.30;39.80;;;;;;5051852;28;20025;-77
2021/09/21 11:09:55;;;;;;;10.75;2.10;;;22.40;40.00;;;;;;5052325;28;20380;-76
2021/09/21 11:12:24;;;;;;;6.20;2.03;;;22.40;40.20;;;;;;5046900;28;20033;-80
2021/09/21 11:14:53;;;;;;;4.75;1.98;;;22.40;40.30;;;;;;5046041;28;20035;-77
2021/09/21 11:17:25;;;;;;;7.47;2.10;;;22.50;40.70;;;;;;5053578;28;20380;-80
2021/09/21 11:19:54;;;;;;;6.38;2.53;;;22.50;41.00;;;;;;5050439;28;20028;-79
2021/09/21 11:22:26;;;;;;;6.15;2.28;;;22.50;41.00;;;;;;5046589;28;20012;-79
2021/09/21 11:25:05;;;;;;;5.65;2.10;;;22.60;41.20;;;;;;5052304;28;20029;-81
2021/09/21 11:27:34;;;;;;;9.60;1.95;;;22.70;41.20;;;;;;5046367;28;20135;-80
2021/09/21 11:30:13;;;;;;;7.88;1.98;;;22.80;41.30;;;;;;5050649;28;20104;-80
2021/09/21 11:32:45;;;;;;;4.30;1.63;;;22.90;41.50;;;;;;5050470;28;20033;-80
2021/09/21 11:35:18;;;;;;;5.05;2.10;;;22.90;40.90;;;;;;5046180;28;20404;-77
2021/09/21 11:37:52;;;;;;;12.57;2.50;;;23.00;40.90;;;;;;5051074;28;20025;-81
2021/09/21 11:40:31;;;;;;;7.82;1.95;;;23.00;40.40;;;;;;5043191;28;20021;-72
2021/09/21 11:42:58;;;;;;;6.90;2.53;;;23.10;40.10;;;;;;5053755;28;20032;-85
2021/09/21 11:45:26;;;;;;;7.18;2.15;;;23.10;40.20;;;;;;5040541;28;20447;-83
2021/09/21 11:47:53;;;;;;;6.82;3.20;;;23.10;40.30;;;;;;5051014;28;20090;-82
2021/09/21 11:50:22;;;;;;;5.75;2.35;;;23.10;40.70;;;;;;5057554;28;20008;-86
2021/09/21 11:52:55;;;;;;;10.85;2.72;;;23.20;40.30;;;;;;5052175;28;20095;-74
2021/09/21 11:55:24;;;;;;;9.30;3.03;;;23.20;39.70;;;;;;5049023;28;20044;-84
2021/09/21 11:57:52;;;;;;;8.65;2.75;;;23.20;40.30;;;;;;5045836;28;20068;-86
2021/09/21 12:00:21;;;;;;;4.22;2.95;;;23.30;39.80;;;;;;5044173;28;20135;-86
2021/09/21 12:02:55;;;;;;;5.90;2.35;;;23.30;39.70;;;;;;5040991;28;20100;-87
2021/09/21 12:05:22;;;;;;;4.78;1.85;;;23.40;39.20;;;;;;5039419;28;20745;-81
2021/09/21 12:07:50;;;;;;;4.18;2.00;;;23.40;39.00;;;;;;5048420;28;20075;-83
2021/09/21 12:10:17;;;;;;;10.18;2.28;;;23.40;38.80;;;;;;5050991;28;20048;-78
2021/09/21 12:12:44;;;;;;;8.75;2.95;;;23.50;39.20;;;;;;5041152;28;20021;-76
2021/09/21 12:15:12;;;;;;;5.32;1.52;;;23.50;38.70;;;;;;5040649;28;20060;-84
2021/09/21 12:17:44;;;;;;;5.80;1.65;;;23.60;39.00;;;;;;5043964;28;20653;-80
2021/09/21 12:20:13;;;;;;;5.47;1.98;;;23.60;38.70;;;;;;5045278;28;20057;-83
2021/09/21 12:22:50;;;;;;;8.50;1.75;;;23.70;38.20;;;;;;5050843;28;20476;-81
2021/09/21 12:25:17;;;;;;;6.97;2.53;;;23.70;39.00;;;;;;5052649;28;20040;-83
2021/09/21 12:27:43;;;;;;;6.95;2.95;;;23.70;39.50;;;;;;5047837;28;20090;-83
2021/09/21 12:30:10;;;;;;;8.32;1.88;;;23.80;39.40;;;;;;5046866;28;20430;-84
2021/09/21 12:32:37;;;;;;;7.10;1.70;;;23.80;39.40;;;;;;5046333;28;20025;-84
2021/09/21 12:35:09;;;;;;;6.75;2.72;;;23.90;39.70;;;;;;5048259;28;20052;-81
2021/09/21 12:37:38;;;;;;;5.93;2.42;;;23.90;39.60;;;;;;5044699;28;20033;-83
2021/09/21 12:40:15;;;;;;;6.18;1.88;;;24.00;40.00;;;;;;5040905;28;20487;-84
2021/09/21 12:42:43;;;;;;;3.58;1.83;;;24.00;40.10;;;;;;5049135;28;20072;-86
2021/09/21 12:45:11;;;;;;;8.52;2.60;;;24.00;40.40;;;;;;5047788;28;20436;-85
2021/09/21 12:47:41;;;;;;;5.25;1.92;;;24.00;40.40;;;;;;5051680;28;20021;-75
2021/09/21 12:50:19;;;;;;;7.50;2.63;;;24.00;40.80;;;;;;5048473;28;20025;-75
2021/09/21 12:52:57;;;;;;;10.95;2.03;;;23.90;41.20;;;;;;5044713;28;20072;-75
2021/09/21 12:55:33;;;;;;;9.15;2.47;;;23.90;41.70;;;;;;5045518;28;20075;-75
2021/09/21 12:58:01;;;;;;;6.78;2.58;;;23.90;42.00;;;;;;5047938;28;20021;-75
2021/09/21 13:00:39;;;;;;;7.03;2.40;;;23.90;42.00;;;;;;5047582;28;20036;-75